createdAt,value
2023-05-03T00:01:38.012Z,96971.78
2023-05-03T00:04:05.071Z,96980.16
2023-05-03T00:06:32.150Z,96976.16
2023-05-03T00:08:59.210Z,96976.59
2023-05-03T00:11:26.269Z,96972.63
2023-05-03T00:13:53.467Z,96976.78
2023-05-03T00:16:20.527Z,96974.63
2023-05-03T00:18:49.147Z,96980.63
2023-05-03T00:21:16.389Z,96983.75
2023-05-03T00:23:43.445Z,96972.63
2023-05-03T00:26:10.507Z,96972.31
2023-05-03T00:28:37.530Z,96971.19
2023-05-03T00:31:04.617Z,96964.81
2023-05-03T00:33:31.682Z,96973.97
2023-05-03T00:35:58.747Z,96969.97
2023-05-03T00:38:25.780Z,96966.22
2023-05-03T00:40:52.795Z,96965.91
2023-05-03T00:43:19.834Z,96961.91
2023-05-03T00:45:46.879Z,96970.28
2023-05-03T00:48:13.925Z,96977.63
2023-05-03T00:50:40.963Z,96957.25
2023-05-03T00:53:08.016Z,96957.72
2023-05-03T00:55:35.032Z,96961.88
2023-05-03T00:58:02.082Z,96958.94
2023-05-03T01:00:29.149Z,96959.41
2023-05-03T01:02:56.324Z,96959.63
2023-05-03T01:05:23.471Z,96963.53
2023-05-03T01:07:50.503Z,96964.56
2023-05-03T01:10:17.599Z,96971.66
2023-05-03T01:12:44.637Z,96975.34
2023-05-03T01:15:11.672Z,96967.91
2023-05-03T01:17:38.759Z,96970.78
2023-05-03T01:20:06.029Z,96975.47
2023-05-03T01:22:33.371Z,96965.44
2023-05-03T01:25:00.427Z,96978.03
2023-05-03T01:27:27.464Z,96963.25
2023-05-03T01:29:54.509Z,96966.13
2023-05-03T01:32:21.626Z,96964.53
2023-05-03T01:34:48.739Z,96960.28
2023-05-03T01:37:15.784Z,96969.22
2023-05-03T01:39:42.836Z,96963.97
2023-05-03T01:42:09.876Z,96966.03
2023-05-03T01:44:36.923Z,96963.63
2023-05-03T01:47:03.988Z,96960.19
2023-05-03T01:49:31.029Z,96954.38
2023-05-03T01:51:58.064Z,96959.06
2023-05-03T01:54:25.113Z,96964.78
2023-05-03T01:56:52.146Z,96958.38
2023-05-03T01:59:19.189Z,96960.44
2023-05-03T02:01:46.229Z,96955.66
2023-05-03T02:04:13.291Z,96956.91
2023-05-03T02:06:40.401Z,96953.13
2023-05-03T02:09:07.472Z,96951.78
2023-05-03T02:11:34.499Z,96956.72
2023-05-03T02:14:01.557Z,96962.44
2023-05-03T02:16:28.676Z,96957.63
2023-05-03T02:18:55.754Z,96952.59
2023-05-03T02:21:22.811Z,96952.25
2023-05-03T02:23:49.850Z,96955.38
2023-05-03T02:26:16.896Z,96957.44
2023-05-03T02:28:43.937Z,96950.81
2023-05-03T02:31:11.172Z,96961.56
2023-05-03T02:33:38.242Z,96964.19
2023-05-03T02:36:05.263Z,96968.66
2023-05-03T02:38:32.330Z,96961.22
2023-05-03T02:40:59.366Z,96958.59
2023-05-03T02:43:26.470Z,96962.22
2023-05-03T02:45:53.553Z,96956.19
2023-05-03T02:48:20.653Z,96954.81
2023-05-03T02:50:47.728Z,96954.03
2023-05-03T02:53:14.765Z,96960.53
2023-05-03T02:55:41.845Z,96956.53
2023-05-03T02:58:08.884Z,96954.97
2023-05-03T03:00:35.930Z,96957.03
2023-05-03T03:03:03.135Z,96951.97
2023-05-03T03:05:30.213Z,96953.81
2023-05-03T03:07:57.261Z,96951.41
2023-05-03T03:10:24.618Z,96957.69
2023-05-03T03:12:51.631Z,96958.97
2023-05-03T03:15:18.680Z,96954.72
2023-05-03T03:17:45.749Z,96955.19
2023-05-03T03:20:13.016Z,96959.88
2023-05-03T03:22:40.052Z,96963.53
2023-05-03T03:25:07.086Z,96964.78
2023-05-03T03:27:34.122Z,96964.78
2023-05-03T03:30:01.551Z,96964.44
2023-05-03T03:32:28.867Z,96964.91
2023-05-03T03:34:55.915Z,96973.03
2023-05-03T03:37:22.932Z,96971.41
2023-05-03T03:39:49.975Z,96971.09
2023-05-03T03:42:19.050Z,96972.09
2023-05-03T03:44:46.235Z,96976.78
2023-05-03T03:47:13.374Z,96974.38
2023-05-03T03:49:40.511Z,96978.28
2023-05-03T03:52:07.527Z,96982.16
2023-05-03T03:54:34.586Z,96974.50
2023-05-03T03:57:01.608Z,96976.56
2023-05-03T03:59:28.633Z,96978.63
2023-05-03T04:01:55.696Z,96977.25
2023-05-03T04:04:22.784Z,96985.13
2023-05-03T04:06:49.965Z,96987.19
2023-05-03T04:09:17.160Z,96986.63
2023-05-03T04:11:44.178Z,96989.47
2023-05-03T04:14:11.166Z,96990.69
2023-05-03T04:16:38.282Z,96996.78
2023-05-03T04:19:05.371Z,96999.63
2023-05-03T04:21:32.393Z,96991.94
2023-05-03T04:23:59.457Z,96997.41
2023-05-03T04:26:31.735Z,96992.16
2023-05-03T04:28:59.312Z,96995.81
2023-05-03T04:31:26.362Z,97008.94
2023-05-03T04:33:53.434Z,97002.09
2023-05-03T04:36:20.500Z,97003.69
2023-05-03T04:38:47.541Z,97000.84
2023-05-03T04:41:16.112Z,97009.34
2023-05-03T04:43:43.320Z,97011.97
2023-05-03T04:46:10.389Z,97004.88
2023-05-03T04:48:37.459Z,97009.09
2023-05-03T04:51:04.641Z,97014.94
2023-05-03T04:53:31.683Z,97013.69
2023-05-03T04:55:58.713Z,97014.28
2023-05-03T04:58:25.747Z,97018.03
2023-05-03T05:00:52.780Z,97011.53
2023-05-03T05:03:19.856Z,97020.34
2023-05-03T05:05:46.994Z,97017.84
2023-05-03T05:08:14.025Z,97021.38
2023-05-03T05:10:41.109Z,97021.28
2023-05-03T05:13:08.127Z,97023.78
2023-05-03T05:15:35.152Z,97026.28
2023-05-03T05:18:02.240Z,97028.63
2023-05-03T05:20:29.294Z,97030.63
2023-05-03T05:22:56.324Z,97027.69
2023-05-03T05:25:23.603Z,97033.16
2023-05-03T05:27:50.627Z,97030.97
2023-05-03T05:30:17.675Z,97030.16
2023-05-03T05:32:44.719Z,97030.63
2023-05-03T05:35:11.829Z,97033.44
2023-05-03T05:37:38.874Z,97034.69
2023-05-03T05:40:06.110Z,97041.22
2023-05-03T05:42:33.334Z,97045.31
2023-05-03T05:45:00.361Z,97051.78
2023-05-03T05:47:27.524Z,97050.84
2023-05-03T05:49:54.641Z,97049.66
2023-05-03T05:52:21.672Z,97051.34
2023-05-03T05:54:48.732Z,97054.66
2023-05-03T05:57:15.810Z,97055.56
2023-05-03T05:59:42.870Z,97049.56
2023-05-03T06:02:09.954Z,97055.72
2023-05-03T06:04:37.023Z,97057.88
2023-05-03T06:07:04.062Z,97059.00
2023-05-03T06:09:31.089Z,97069.66
2023-05-03T06:11:58.180Z,97057.56
2023-05-03T06:14:25.224Z,97069.28
2023-05-03T06:16:53.075Z,97063.28
2023-05-03T06:19:20.176Z,97060.72
2023-05-03T06:21:47.182Z,97063.47
2023-05-03T06:24:14.208Z,97062.25
2023-05-03T06:26:41.251Z,97074.78
2023-05-03T06:29:08.706Z,97070.97
2023-05-03T06:31:35.885Z,97076.16
2023-05-03T06:34:03.127Z,97079.75
2023-05-03T06:36:30.151Z,97076.19
2023-05-03T06:38:57.235Z,97076.09
2023-05-03T06:41:24.299Z,97069.09
2023-05-03T06:43:51.357Z,97078.53
2023-05-03T06:46:20.253Z,97078.19
2023-05-03T06:48:47.682Z,97072.25
2023-05-03T06:51:14.735Z,97072.44
2023-05-03T06:53:41.771Z,97070.50
2023-05-03T06:56:08.825Z,97068.28
2023-05-03T06:58:35.930Z,97072.97
2023-05-03T07:01:03.004Z,97074.19
2023-05-03T07:03:30.152Z,97076.97
2023-05-03T07:05:57.276Z,97074.22
2023-05-03T07:08:24.331Z,97077.81
2023-05-03T07:10:51.419Z,97074.97
2023-05-03T07:13:18.491Z,97078.81
2023-05-03T07:15:45.714Z,97074.88
2023-05-03T07:18:12.887Z,97068.31
2023-05-03T07:20:39.977Z,97075.78
2023-05-03T07:23:07.043Z,97059.28
2023-05-03T07:25:34.112Z,97068.28
2023-05-03T07:28:01.185Z,97057.38
2023-05-03T07:30:28.241Z,97057.56
2023-05-03T07:32:55.398Z,97063.03
2023-05-03T07:35:22.581Z,97060.03
2023-05-03T07:37:49.651Z,97058.56
2023-05-03T07:40:16.725Z,97056.28
2023-05-03T07:42:43.749Z,97052.38
2023-05-03T07:45:10.924Z,97048.78
2023-05-03T07:47:38.033Z,97058.44
2023-05-03T07:50:05.224Z,97050.53
2023-05-03T07:52:32.418Z,97054.88
2023-05-03T07:54:59.447Z,97046.09
2023-05-03T07:57:26.486Z,97052.84
2023-05-03T07:59:53.534Z,97063.03
2023-05-03T08:02:20.601Z,97057.47
2023-05-03T08:04:47.919Z,97050.94
2023-05-03T08:07:15.046Z,97054.75
2023-05-03T08:09:42.088Z,97053.50
2023-05-03T08:12:09.148Z,97057.81
2023-05-03T08:14:36.181Z,97048.53
2023-05-03T08:17:03.287Z,97059.25
2023-05-03T08:19:30.296Z,97050.22
2023-05-03T08:21:57.307Z,97046.78
2023-05-03T08:24:24.344Z,97048.34
2023-05-03T08:26:51.434Z,97059.06
2023-05-03T08:29:18.468Z,97049.47
2023-05-03T08:31:45.596Z,97043.31
2023-05-03T08:34:12.689Z,97047.34
2023-05-03T08:36:39.718Z,97053.91
2023-05-03T08:39:06.999Z,97049.38
2023-05-03T08:41:34.047Z,97050.56
2023-05-03T08:44:01.079Z,97050.34
2023-05-03T08:46:28.522Z,97049.63
2023-05-03T08:48:55.799Z,97056.97
2023-05-03T08:51:22.890Z,97058.13
2023-05-03T08:53:49.945Z,97057.41
2023-05-03T08:56:17.032Z,97061.06
2023-05-03T08:58:44.068Z,97053.50
2023-05-03T09:01:11.090Z,97054.97
2023-05-03T09:03:38.299Z,97055.44
2023-05-03T09:06:05.371Z,97061.00
2023-05-03T09:08:32.442Z,97056.41
2023-05-03T09:10:59.448Z,97058.16
2023-05-03T09:13:26.483Z,97050.00
2023-05-03T09:15:54.324Z,97060.59
2023-05-03T09:18:21.620Z,97057.00
2023-05-03T09:20:48.703Z,97060.88
2023-05-03T09:23:15.726Z,97059.31
2023-05-03T09:25:43.233Z,97059.66
2023-05-03T09:28:10.256Z,97065.88
2023-05-03T09:30:37.310Z,97055.81
2023-05-03T09:33:04.402Z,97060.41
2023-05-03T09:35:31.540Z,97053.63
2023-05-03T09:37:58.802Z,97047.31
2023-05-03T09:40:25.834Z,97052.25
2023-05-03T09:42:52.879Z,97045.94
2023-05-03T09:45:19.975Z,97051.69
2023-05-03T09:47:47.046Z,97049.31
2023-05-03T09:50:14.153Z,97050.44
2023-05-03T09:52:41.190Z,97057.25
2023-05-03T09:55:08.208Z,97059.47
2023-05-03T09:57:35.252Z,97055.53
2023-05-03T10:00:02.301Z,97059.31
2023-05-03T10:02:29.379Z,97064.53
2023-05-03T10:04:56.433Z,97052.06
2023-05-03T10:07:23.465Z,97052.69
2023-05-03T10:09:50.493Z,97047.19
2023-05-03T10:12:17.880Z,97048.63
2023-05-03T10:14:45.076Z,97047.69
2023-05-03T10:17:12.107Z,97051.47
2023-05-03T10:19:39.139Z,97052.41
2023-05-03T10:22:06.173Z,97047.50
2023-05-03T10:24:33.159Z,97049.06
2023-05-03T10:27:00.215Z,97048.28
2023-05-03T10:29:27.265Z,97042.59
2023-05-03T10:31:54.363Z,97043.56
2023-05-03T10:34:21.433Z,97040.41
2023-05-03T10:36:49.934Z,97037.56
2023-05-03T10:39:17.233Z,97040.88
2023-05-03T10:41:44.251Z,97044.50
2023-05-03T10:44:11.286Z,97034.22
2023-05-03T10:46:38.337Z,97034.69
2023-05-03T10:49:05.507Z,97045.25
2023-05-03T10:51:32.574Z,97041.94
2023-05-03T10:53:59.880Z,97039.72
2023-05-03T10:56:26.938Z,97033.25
2023-05-03T10:58:53.983Z,97034.81
2023-05-03T11:01:21.081Z,97030.69
2023-05-03T11:03:48.113Z,97033.06
2023-05-03T11:06:15.192Z,97029.25
2023-05-03T11:08:42.217Z,97021.47
2023-05-03T11:11:09.232Z,97024.78
2023-05-03T11:13:36.313Z,97023.03
2023-05-03T11:16:03.365Z,97021.25
2023-05-03T11:18:30.410Z,97021.59
2023-05-03T11:20:57.443Z,97017.31
2023-05-03T11:23:24.523Z,97013.97
2023-05-03T11:25:51.533Z,97012.91
2023-05-03T11:28:18.578Z,97003.88
2023-05-03T11:30:45.627Z,97001.50
2023-05-03T11:33:12.755Z,96998.34
2023-05-03T11:35:39.875Z,96996.59
2023-05-03T11:38:06.891Z,96999.28
2023-05-03T11:40:33.936Z,96995.31
2023-05-03T11:43:00.959Z,96977.97
2023-05-03T11:45:27.982Z,96992.00
2023-05-03T11:47:55.185Z,96987.25
2023-05-03T11:50:22.243Z,96990.88
2023-05-03T11:52:49.294Z,96995.53
2023-05-03T11:55:16.347Z,96991.59
2023-05-03T11:57:43.359Z,96995.34
2023-05-03T12:00:10.421Z,96997.63
2023-05-03T12:02:37.724Z,96994.22
2023-05-03T12:05:05.820Z,96992.16
2023-05-03T12:07:33.613Z,96993.66
2023-05-03T12:12:35.887Z,96997.25
2023-05-03T12:15:04.874Z,96991.81
2023-05-03T12:17:36.365Z,96986.03
2023-05-03T12:20:41.405Z,96979.88
2023-05-03T12:22:52.154Z,96982.06
2023-05-03T12:25:20.827Z,96973.22
2023-05-03T12:27:59.934Z,96981.56
2023-05-03T12:30:35.481Z,96978.88
2023-05-03T12:33:04.890Z,96970.38
2023-05-03T12:35:34.187Z,96974.81
2023-05-03T12:38:02.928Z,96976.06
2023-05-03T12:40:34.102Z,96978.31
2023-05-03T12:43:01.759Z,96970.75
2023-05-03T12:45:28.939Z,96971.72
2023-05-03T12:47:56.258Z,96972.03
2023-05-03T12:50:24.917Z,96964.41
2023-05-03T12:52:53.111Z,96968.16
2023-05-03T12:55:24.679Z,96963.31
2023-05-03T12:58:13.180Z,96955.72
2023-05-03T13:00:49.185Z,96951.13
2023-05-03T13:03:32.776Z,96947.00
2023-05-03T13:06:11.858Z,96952.28
2023-05-03T13:08:48.838Z,96949.00
2023-05-03T13:11:17.549Z,96943.09
2023-05-03T13:13:44.674Z,96946.75
2023-05-03T13:16:11.812Z,96942.41
2023-05-03T13:18:38.874Z,96930.81
2023-05-03T13:21:05.912Z,96927.25
2023-05-03T13:23:32.986Z,96936.59
2023-05-03T13:26:00.096Z,96926.91
2023-05-03T13:28:27.120Z,96931.84
2023-05-03T13:30:54.151Z,96931.56
2023-05-03T13:33:21.189Z,96929.09
2023-05-03T13:35:48.371Z,96928.47
2023-05-03T13:38:15.410Z,96923.63
2023-05-03T13:40:42.473Z,96919.09
2023-05-03T13:43:09.496Z,96914.81
2023-05-03T13:45:37.987Z,96914.81
2023-05-03T13:48:17.969Z,96918.28
2023-05-03T13:50:46.243Z,96904.91
2023-05-03T13:53:13.330Z,96909.47
2023-05-03T13:55:40.355Z,96911.66
2023-05-03T13:58:07.377Z,96906.31
2023-05-03T14:00:34.835Z,96904.91
2023-05-03T14:03:02.257Z,96904.13
2023-05-03T14:05:29.521Z,96898.78
2023-05-03T14:07:56.590Z,96892.06
2023-05-03T14:10:23.619Z,96891.25
2023-05-03T14:12:50.687Z,96891.75
2023-05-03T14:15:17.780Z,96891.75
2023-05-03T14:17:44.831Z,96891.75
2023-05-03T14:20:11.902Z,96885.34
2023-05-03T14:22:38.958Z,96888.78
2023-05-03T14:25:06.014Z,96890.69
2023-05-03T14:27:33.046Z,96887.03
2023-05-03T14:30:00.131Z,96880.06
2023-05-03T14:32:27.235Z,96890.56
2023-05-03T14:34:54.468Z,96878.88
2023-05-03T14:37:21.622Z,96872.56
2023-05-03T14:39:48.642Z,96878.69
2023-05-03T14:42:15.675Z,96877.63
2023-05-03T14:44:42.729Z,96874.16
2023-05-03T14:47:09.830Z,96879.78
2023-05-03T14:49:36.896Z,96874.16
2023-05-03T14:52:03.917Z,96872.34
2023-05-03T14:54:31.278Z,96875.03
2023-05-03T14:56:58.413Z,96879.59
2023-05-03T14:59:25.473Z,96887.88
2023-05-03T15:01:52.595Z,96878.03
2023-05-03T15:04:19.639Z,96885.22
2023-05-03T15:06:46.730Z,96881.28
2023-05-03T15:09:13.848Z,96878.59
2023-05-03T15:11:40.882Z,96884.72
2023-05-03T15:14:07.955Z,96881.06
2023-05-03T15:16:37.220Z,96885.63
2023-05-03T15:19:04.384Z,96881.19
2023-05-03T15:21:31.451Z,96876.91
2023-05-03T15:23:58.468Z,96882.75
2023-05-03T15:26:25.502Z,96884.03
2023-05-03T15:28:52.789Z,96877.13
2023-05-03T15:31:19.871Z,96878.69
2023-05-03T15:33:46.915Z,96873.84
2023-05-03T15:36:13.921Z,96868.50
2023-05-03T15:38:40.941Z,96878.09
2023-05-03T15:41:08.005Z,96868.19
2023-05-03T15:43:35.064Z,96864.13
2023-05-03T15:46:02.252Z,96860.88
2023-05-03T15:48:29.339Z,96863.25
2023-05-03T15:50:56.602Z,96862.66
2023-05-03T15:53:23.682Z,96864.25
2023-05-03T15:55:50.698Z,96868.69
2023-05-03T15:58:17.733Z,96873.75
2023-05-03T16:00:44.933Z,96874.72
2023-05-03T16:03:12.052Z,96877.13
2023-05-03T16:05:39.110Z,96877.31
2023-05-03T16:08:06.114Z,96871.66
2023-05-03T16:10:33.189Z,96881.50
2023-05-03T16:13:00.500Z,96884.88
2023-05-03T16:15:27.538Z,96882.38
2023-05-03T16:17:54.624Z,96885.16
2023-05-03T16:20:21.704Z,96893.25
2023-05-03T16:22:50.154Z,96883.13
2023-05-03T16:25:18.408Z,96877.13
2023-05-03T16:27:45.439Z,96878.28
2023-05-03T16:30:12.460Z,96870.06
2023-05-03T16:32:39.818Z,96876.97
2023-05-03T16:35:06.856Z,96869.25
2023-05-03T16:37:33.873Z,96869.19
2023-05-03T16:40:00.954Z,96871.78
2023-05-03T16:42:27.949Z,96867.44
2023-05-03T16:44:54.966Z,96870.34
2023-05-03T16:47:22.022Z,96875.88
2023-05-03T16:49:49.040Z,96873.06
2023-05-03T16:52:16.128Z,96881.13
2023-05-03T16:54:43.163Z,96871.16
2023-05-03T16:57:10.176Z,96871.09
2023-05-03T16:59:37.168Z,96877.69
2023-05-03T17:02:04.261Z,96869.13
2023-05-03T17:04:31.341Z,96873.97
2023-05-03T17:06:58.348Z,96862.84
2023-05-03T17:09:25.344Z,96866.31
2023-05-03T17:11:52.387Z,96865.84
2023-05-03T17:14:19.413Z,96868.22
2023-05-03T17:16:46.475Z,96874.22
2023-05-03T17:19:13.506Z,96866.16
2023-05-03T17:21:40.561Z,96871.06
2023-05-03T17:24:07.586Z,96866.31
2023-05-03T17:26:34.594Z,96873.44
2023-05-03T17:29:01.593Z,96877.13
2023-05-03T17:31:28.650Z,96874.75
2023-05-03T17:33:55.674Z,96875.06
2023-05-03T17:36:23.038Z,96881.09
2023-05-03T17:38:50.646Z,96876.69
2023-05-03T17:41:17.668Z,96874.63
2023-05-03T17:43:44.677Z,96871.03
2023-05-03T17:46:11.782Z,96867.41
2023-05-03T17:48:38.828Z,96875.47
2023-05-03T17:51:05.897Z,96879.50
2023-05-03T17:53:32.995Z,96871.75
2023-05-03T17:56:00.040Z,96873.66
2023-05-03T17:58:27.060Z,96877.66
2023-05-03T18:00:54.107Z,96874.97
2023-05-03T18:03:21.188Z,96873.84
2023-05-03T18:05:48.247Z,96878.88
2023-05-03T18:08:15.298Z,96877.16
2023-05-03T18:10:42.318Z,96871.31
2023-05-03T18:13:09.466Z,96880.16
2023-05-03T18:15:36.693Z,96877.16
2023-05-03T18:18:03.813Z,96889.44
2023-05-03T18:20:30.959Z,96887.25
2023-05-03T18:22:57.978Z,96889.63
2023-05-03T18:25:24.989Z,96891.53
2023-05-03T18:27:52.023Z,96894.81
2023-05-03T18:30:19.035Z,96898.63
2023-05-03T18:32:46.067Z,96900.03
2023-05-03T18:35:13.157Z,96896.88
2023-05-03T18:37:40.195Z,96899.41
2023-05-03T18:40:07.329Z,96903.81
2023-05-03T18:42:34.427Z,96907.13
2023-05-03T18:45:01.436Z,96908.38
2023-05-03T18:47:28.566Z,96908.84
2023-05-03T18:49:56.098Z,96913.09
2023-05-03T18:52:23.977Z,96917.78
2023-05-03T18:54:51.051Z,96916.38
2023-05-03T18:57:18.104Z,96917.88
2023-05-03T18:59:56.517Z,96922.88
2023-05-03T19:02:26.798Z,96918.28
2023-05-03T19:04:54.336Z,96922.50
2023-05-03T19:07:21.447Z,96928.63
2023-05-03T19:09:48.465Z,96924.00
2023-05-03T19:12:15.484Z,96932.03
2023-05-03T19:14:42.511Z,96927.72
2023-05-03T19:17:09.604Z,96929.19
2023-05-03T19:19:36.646Z,96929.16
2023-05-03T19:22:03.711Z,96929.38
2023-05-03T19:24:30.746Z,96929.81
2023-05-03T19:26:57.740Z,96930.53
2023-05-03T19:29:24.770Z,96932.84
2023-05-03T19:31:51.766Z,96924.47
2023-05-03T19:34:18.766Z,96932.41
2023-05-03T19:36:45.791Z,96934.19
2023-05-03T19:39:12.830Z,96933.31
2023-05-03T19:41:39.898Z,96929.75
2023-05-03T19:44:07.002Z,96935.81
2023-05-03T19:46:34.133Z,96932.28
2023-05-03T19:49:01.199Z,96934.56
2023-05-03T19:51:28.263Z,96923.44
2023-05-03T19:53:55.327Z,96927.94
2023-05-03T19:56:22.355Z,96934.72
2023-05-03T19:58:49.383Z,96941.25
2023-05-03T20:01:16.448Z,96936.59
2023-05-03T20:03:43.647Z,96938.66
2023-05-03T20:06:10.682Z,96940.81
2023-05-03T20:08:37.982Z,96947.28
2023-05-03T20:11:05.040Z,96955.59
2023-05-03T20:13:32.100Z,96947.41
2023-05-03T20:15:59.181Z,96948.28
2023-05-03T20:18:26.314Z,96945.03
2023-05-03T20:20:53.370Z,96933.63
2023-05-03T20:23:20.418Z,96933.84
2023-05-03T20:25:47.493Z,96929.28
2023-05-03T20:28:14.524Z,96938.50
2023-05-03T20:30:41.627Z,96932.03
2023-05-03T20:33:08.740Z,96928.69
2023-05-03T20:35:35.828Z,96932.31
2023-05-03T20:38:02.841Z,96922.84
2023-05-03T20:40:29.868Z,96922.16
2023-05-03T20:42:56.906Z,96928.38
2023-05-03T20:45:23.983Z,96923.91
2023-05-03T20:47:51.071Z,96925.84
2023-05-03T20:50:18.147Z,96926.41
2023-05-03T20:52:45.180Z,96921.94
2023-05-03T20:55:12.216Z,96920.94
2023-05-03T20:57:39.264Z,96919.63
2023-05-03T21:00:06.556Z,96912.25
2023-05-03T21:02:33.868Z,96920.50
2023-05-03T21:05:01.554Z,96922.91
2023-05-03T21:07:28.609Z,96911.72
2023-05-03T21:09:55.635Z,96912.00
2023-05-03T21:12:22.721Z,96910.41
2023-05-03T21:14:49.758Z,96914.34
2023-05-03T21:17:16.971Z,96905.84
2023-05-03T21:19:43.993Z,96905.84
2023-05-03T21:22:11.020Z,96917.22
2023-05-03T21:24:38.061Z,96911.34
2023-05-03T21:27:05.092Z,96910.25
2023-05-03T21:29:32.118Z,96910.75
2023-05-03T21:31:59.192Z,96910.47
2023-05-03T21:34:26.277Z,96913.06
2023-05-03T21:36:53.333Z,96910.94
2023-05-03T21:39:20.296Z,96908.22
2023-05-03T21:41:47.326Z,96903.41
2023-05-03T21:45:14.108Z,96903.91
2023-05-03T21:47:41.272Z,96905.47
2023-05-03T21:50:08.394Z,96904.63
2023-05-03T21:52:35.444Z,96899.78
2023-05-03T21:55:17.501Z,96892.59
